Terminal Aerodrome Forecast
Issued by NWS

Home | Current Version | Previous Version | Text Only | Print | Product List | Glossary On
Versions: 1 2 3 4 5 6 7 8 9 10 11 12 13
000
FTUS41 KPHI 270548
TAFPNE
TAF
KPNE 270548Z 2706/2806 20005KT P6SM SCT050 BKN200
     FM270900 20004KT P6SM SCT015 BKN120
      TEMPO 2710/2714 BKN015
     FM271500 23010G18KT P6SM SCT030
     FM271900 21013G21KT P6SM BKN045
     FM280100 20007KT P6SM BKN120=

USA.gov is the U.S. government's official web portal to all federal, state and local government web resources and services.